Main page
METAR-TAF:

METAR-TAF

Airports :

Sumburgh, Shetland, Scotland

Sumburgh Airport

latitude: 59-53N, longitude: 001-18W, elevation: 5 m

Current weather observation

The report was made 23 minutes ago, at 01:50 UTC
Wind 12 kt from the Southwest
Temperature 5°C
Humidity 81%
Pressure 1013 hPa
Visibility 10 km or more

METAR: EGPB 170150Z AUTO 22012KT 9999 BKN020/// 05/02 Q1013

Time: 02:13 (02:13 UTC)

Forecast

The report was made 3 hours and 17 minutes ago, at 22:56 UTC
Forecast valid from 17 at 00 UTC to 17 at 09 UTC
Wind 12 kt from the South/Southwest
Visibility 10 km or more
Scattered clouds at a height of 2000 ft
Temporary
from 17 at 03 UTC to 17 at 09 UTC
Wind 15 kt from the South/Southwest with gusts up to 25 kt
Probability 40% :
Temporary
from 17 at 04 UTC to 17 at 09 UTC
Wind 25 kt from the South with gusts up to 35 kt
Visibility: 7000 m
Broken clouds at a height of 1400 ft
rain

TAF: EGPB 162256Z 1700/1709 21012KT 9999 SCT020 TEMPO 1703/1709 20015G25KT PROB40 TEMPO 1704/1709 19025G35KT 7000 RA BKN014

Weather observations and forecasts of more than 4000 airports (METAR and TAF reports).

The available stations are represented by yellow and red dots on the map.

Hover mouse over dot to see the name of the station.

Then click to see weather observations and forecasts.

To change the map : click on the green buttons with a black cross to zoom in, on the green button with a dash to zoom out, or on the green arrows for adjacent maps.


METAR-TAF: